Check out our new PWSWeather beta!
PWSweather.com
Personal Weather Stations
Station Observations
METEOC500
Santo Antonio, FunchalPT 2020

Santo AntonioFunchalPT 2020

Lat: 32.678227, Lon: -16.945054

Elevation: 1669.94751

Station Type: WH Series

High Low Average
Temperature 63.1°F17.3°C 53.6°F12.0°C 57.9°F14.4°C
Dew Point 56.8°F13.8°C 46.8°F8.2°C 52.0°F11.1°C
Winds 6.5 mph 10.5 kmh Calm Calm 3.0 mph WSW4.8 kmh WSW
Wind Gusts 15.0 mph24.1 kmh 2.5 mph4.0 kmh 8.0 mph12.9 kmh
Humidity 89% 67% 81%
Pressure 30.25 in1024.4 mb 30.15 in1021.0 mb -
Precipitation 0.00 in0.0 mm - -
Hour Temp Dew Point Humidity Winds Wind Gusts Pressure Precip Precip Rate Daily Precip Total
12:11 AM 53.6°F12.0°C 50.4°F10.2°C 89% 3.1 mph NNW5.0 kmh NNW 7.6 mph12.2 kmh 30.17 in1021.7 mb 0.00 in0.0 mm 0.00 in0.0 mm 0.00 in0.0 mm
12:26 AM 53.6°F12.0°C 50.2°F10.1°C 88% 2.2 mph NNW3.5 kmh NNW 7.6 mph12.2 kmh 30.18 in1022.0 mb 0.00 in0.0 mm 0.00 in0.0 mm 0.00 in0.0 mm
12:41 AM 53.8°F12.1°C 50.0°F10.0°C 87% 3.1 mph NNW5.0 kmh NNW 7.6 mph12.2 kmh 30.18 in1022.0 mb 0.00 in0.0 mm 0.00 in0.0 mm 0.00 in0.0 mm
12:56 AM 54.1°F12.3°C 50.4°F10.2°C 87% 2.2 mph N3.5 kmh N 10.1 mph16.3 kmh 30.17 in1021.7 mb 0.00 in0.0 mm 0.00 in0.0 mm 0.00 in0.0 mm
01:11 AM 54.1°F12.3°C 50.7°F10.4°C 88% 2.9 mph NW4.7 kmh NW 4.9 mph7.9 kmh 30.17 in1021.7 mb 0.00 in0.0 mm 0.00 in0.0 mm 0.00 in0.0 mm
01:26 AM 54.1°F12.3°C 50.7°F10.4°C 88% 4.7 mph N7.6 kmh N 7.6 mph12.2 kmh 30.17 in1021.7 mb 0.00 in0.0 mm 0.00 in0.0 mm 0.00 in0.0 mm
01:41 AM 54.1°F12.3°C 50.4°F10.2°C 87% 1.8 mph NW2.9 kmh NW 7.6 mph12.2 kmh 30.16 in1021.3 mb 0.00 in0.0 mm 0.00 in0.0 mm 0.00 in0.0 mm
01:56 AM 54.0°F12.2°C 50.5°F10.3°C 88% Calm Calm 7.6 mph12.2 kmh 30.15 in1021.0 mb 0.00 in0.0 mm 0.00 in0.0 mm 0.00 in0.0 mm
02:11 AM 54.1°F12.3°C 50.7°F10.4°C 88% 3.4 mph NW5.5 kmh NW 7.6 mph12.2 kmh 30.16 in1021.3 mb 0.00 in0.0 mm 0.00 in0.0 mm 0.00 in0.0 mm
02:26 AM 54.3°F12.4°C 50.9°F10.5°C 88% 3.8 mph NW6.1 kmh NW 7.6 mph12.2 kmh 30.16 in1021.3 mb 0.00 in0.0 mm 0.00 in0.0 mm 0.00 in0.0 mm
02:41 AM 54.5°F12.5°C 51.1°F10.6°C 88% Calm Calm 4.9 mph7.9 kmh 30.16 in1021.3 mb 0.00 in0.0 mm 0.00 in0.0 mm 0.00 in0.0 mm
02:56 AM 54.5°F12.5°C 51.1°F10.6°C 88% 0.2 mph N0.3 kmh N 4.9 mph7.9 kmh 30.16 in1021.3 mb 0.00 in0.0 mm 0.00 in0.0 mm 0.00 in0.0 mm
03:11 AM 54.5°F12.5°C 51.1°F10.6°C 88% 1.6 mph NNW2.6 kmh NNW 7.6 mph12.2 kmh 30.16 in1021.3 mb 0.00 in0.0 mm 0.00 in0.0 mm 0.00 in0.0 mm
03:26 AM 54.5°F12.5°C 51.1°F10.6°C 88% 2.2 mph NW3.5 kmh NW 7.6 mph12.2 kmh 30.16 in1021.3 mb 0.00 in0.0 mm 0.00 in0.0 mm 0.00 in0.0 mm
03:41 AM 54.7°F12.6°C 51.3°F10.7°C 88% 4.0 mph N6.4 kmh N 4.9 mph7.9 kmh 30.15 in1021.0 mb 0.00 in0.0 mm 0.00 in0.0 mm 0.00 in0.0 mm
03:57 AM 54.9°F12.7°C 51.4°F10.8°C 88% 2.5 mph NW4.0 kmh NW 7.6 mph12.2 kmh 30.16 in1021.3 mb 0.00 in0.0 mm 0.00 in0.0 mm 0.00 in0.0 mm
04:12 AM 54.7°F12.6°C 51.3°F10.7°C 88% 3.4 mph N5.5 kmh N 10.1 mph16.3 kmh 30.15 in1021.0 mb 0.00 in0.0 mm 0.00 in0.0 mm 0.00 in0.0 mm
04:27 AM 55.0°F12.8°C 51.6°F10.9°C 88% 4.0 mph NW6.4 kmh NW 7.6 mph12.2 kmh 30.15 in1021.0 mb 0.00 in0.0 mm 0.00 in0.0 mm 0.00 in0.0 mm
04:42 AM 55.2°F12.9°C 51.8°F11.0°C 88% 4.0 mph NNW6.4 kmh NNW 10.1 mph16.3 kmh 30.16 in1021.3 mb 0.00 in0.0 mm 0.00 in0.0 mm 0.00 in0.0 mm
04:57 AM 55.4°F13.0°C 52.0°F11.1°C 88% 3.4 mph NNW5.5 kmh NNW 4.9 mph7.9 kmh 30.16 in1021.3 mb 0.00 in0.0 mm 0.00 in0.0 mm 0.00 in0.0 mm
05:12 AM 55.4°F13.0°C 51.6°F10.9°C 87% 3.4 mph NNW5.5 kmh NNW 4.9 mph7.9 kmh 30.16 in1021.3 mb 0.00 in0.0 mm 0.00 in0.0 mm 0.00 in0.0 mm
05:27 AM 55.6°F13.1°C 52.2°F11.2°C 88% 3.4 mph NW5.5 kmh NW 7.6 mph12.2 kmh 30.15 in1021.0 mb 0.00 in0.0 mm 0.00 in0.0 mm 0.00 in0.0 mm
05:42 AM 55.6°F13.1°C 52.2°F11.2°C 88% 1.6 mph N2.6 kmh N 4.9 mph7.9 kmh 30.16 in1021.3 mb 0.00 in0.0 mm 0.00 in0.0 mm 0.00 in0.0 mm
05:57 AM 55.6°F13.1°C 52.3°F11.3°C 89% Calm Calm 7.6 mph12.2 kmh 30.16 in1021.3 mb 0.00 in0.0 mm 0.00 in0.0 mm 0.00 in0.0 mm
06:12 AM 55.4°F13.0°C 52.2°F11.2°C 89% 3.8 mph NNE6.1 kmh NNE 7.6 mph12.2 kmh 30.16 in1021.3 mb 0.00 in0.0 mm 0.00 in0.0 mm 0.00 in0.0 mm
06:27 AM 55.4°F13.0°C 52.2°F11.2°C 89% 4.9 mph NNW7.9 kmh NNW 10.1 mph16.3 kmh 30.16 in1021.3 mb 0.00 in0.0 mm 0.00 in0.0 mm 0.00 in0.0 mm
06:42 AM 55.6°F13.1°C 52.3°F11.3°C 89% 3.1 mph NNW5.0 kmh NNW 7.6 mph12.2 kmh 30.17 in1021.7 mb 0.00 in0.0 mm 0.00 in0.0 mm 0.00 in0.0 mm
06:57 AM 55.8°F13.2°C 52.5°F11.4°C 89% 1.3 mph NW2.1 kmh NW 7.6 mph12.2 kmh 30.17 in1021.7 mb 0.00 in0.0 mm 0.00 in0.0 mm 0.00 in0.0 mm
07:12 AM 55.8°F13.2°C 52.5°F11.4°C 89% 3.8 mph N6.1 kmh N 4.9 mph7.9 kmh 30.18 in1022.0 mb 0.00 in0.0 mm 0.00 in0.0 mm 0.00 in0.0 mm
07:27 AM 55.9°F13.3°C 52.7°F11.5°C 89% 4.9 mph NW7.9 kmh NW 7.6 mph12.2 kmh 30.18 in1022.0 mb 0.00 in0.0 mm 0.00 in0.0 mm 0.00 in0.0 mm
07:42 AM 55.9°F13.3°C 52.7°F11.5°C 89% 3.4 mph NNW5.5 kmh NNW 7.6 mph12.2 kmh 30.19 in1022.4 mb 0.00 in0.0 mm 0.00 in0.0 mm 0.00 in0.0 mm
07:57 AM 56.1°F13.4°C 52.7°F11.5°C 88% 2.5 mph N4.0 kmh N 7.6 mph12.2 kmh 30.19 in1022.4 mb 0.00 in0.0 mm 0.00 in0.0 mm 0.00 in0.0 mm
08:12 AM 56.3°F13.5°C 52.9°F11.6°C 88% 1.6 mph N2.6 kmh N 7.6 mph12.2 kmh 30.19 in1022.4 mb 0.00 in0.0 mm 0.00 in0.0 mm 0.00 in0.0 mm
08:27 AM 56.5°F13.6°C 52.9°F11.6°C 88% 2.2 mph NNW3.5 kmh NNW 7.6 mph12.2 kmh 30.19 in1022.4 mb 0.00 in0.0 mm 0.00 in0.0 mm 0.00 in0.0 mm
08:42 AM 56.8°F13.8°C 53.2°F11.8°C 88% 2.9 mph NW4.7 kmh NW 7.6 mph12.2 kmh 30.20 in1022.7 mb 0.00 in0.0 mm 0.00 in0.0 mm 0.00 in0.0 mm
08:57 AM 57.4°F14.1°C 53.6°F12.0°C 87% Calm Calm 4.9 mph7.9 kmh 30.21 in1023.0 mb 0.00 in0.0 mm 0.00 in0.0 mm 0.00 in0.0 mm
09:13 AM 57.7°F14.3°C 53.2°F11.8°C 85% Calm Calm 2.5 mph4.0 kmh 30.21 in1023.0 mb 0.00 in0.0 mm 0.00 in0.0 mm 0.00 in0.0 mm
09:28 AM 58.6°F14.8°C 52.9°F11.6°C 81% 2.2 mph S3.5 kmh S 2.5 mph4.0 kmh 30.22 in1023.4 mb 0.00 in0.0 mm 0.00 in0.0 mm 0.00 in0.0 mm
09:43 AM 59.7°F15.4°C 54.1°F12.3°C 82% 4.7 mph SW7.6 kmh SW 7.6 mph12.2 kmh 30.22 in1023.4 mb 0.00 in0.0 mm 0.00 in0.0 mm 0.00 in0.0 mm
09:58 AM 59.9°F15.5°C 54.3°F12.4°C 82% 3.8 mph ESE6.1 kmh ESE 7.6 mph12.2 kmh 30.22 in1023.4 mb 0.00 in0.0 mm 0.00 in0.0 mm 0.00 in0.0 mm
10:13 AM 59.9°F15.5°C 53.8°F12.1°C 80% 3.8 mph E6.1 kmh E 10.1 mph16.3 kmh 30.22 in1023.4 mb 0.00 in0.0 mm 0.00 in0.0 mm 0.00 in0.0 mm
10:28 AM 60.3°F15.7°C 54.7°F12.6°C 82% 3.4 mph SE5.5 kmh SE 7.6 mph12.2 kmh 30.22 in1023.4 mb 0.00 in0.0 mm 0.00 in0.0 mm 0.00 in0.0 mm
10:43 AM 60.4°F15.8°C 55.2°F12.9°C 83% Calm Calm 7.6 mph12.2 kmh 30.23 in1023.7 mb 0.00 in0.0 mm 0.00 in0.0 mm 0.00 in0.0 mm
10:58 AM 60.1°F15.6°C 54.5°F12.5°C 82% 2.2 mph SSE3.5 kmh SSE 7.6 mph12.2 kmh 30.22 in1023.4 mb 0.00 in0.0 mm 0.00 in0.0 mm 0.00 in0.0 mm
11:13 AM 60.3°F15.7°C 54.7°F12.6°C 82% 4.7 mph ESE7.6 kmh ESE 10.1 mph16.3 kmh 30.23 in1023.7 mb 0.00 in0.0 mm 0.00 in0.0 mm 0.00 in0.0 mm
11:28 AM 60.6°F15.9°C 54.7°F12.6°C 81% 2.9 mph S4.7 kmh S 10.1 mph16.3 kmh 30.23 in1023.7 mb 0.00 in0.0 mm 0.00 in0.0 mm 0.00 in0.0 mm
11:43 AM 61.3°F16.3°C 55.0°F12.8°C 80% 2.9 mph SSW4.7 kmh SSW 7.6 mph12.2 kmh 30.22 in1023.4 mb 0.00 in0.0 mm 0.00 in0.0 mm 0.00 in0.0 mm
11:58 AM 61.7°F16.5°C 56.5°F13.6°C 83% 1.6 mph SSW2.6 kmh SSW 4.9 mph7.9 kmh 30.21 in1023.0 mb 0.00 in0.0 mm 0.00 in0.0 mm 0.00 in0.0 mm
12:13 PM 61.3°F16.3°C 55.8°F13.2°C 82% 3.1 mph SSE5.0 kmh SSE 7.6 mph12.2 kmh 30.21 in1023.0 mb 0.00 in0.0 mm 0.00 in0.0 mm 0.00 in0.0 mm
12:28 PM 61.3°F16.3°C 54.9°F12.7°C 79% 1.6 mph S2.6 kmh S 7.6 mph12.2 kmh 30.20 in1022.7 mb 0.00 in0.0 mm 0.00 in0.0 mm 0.00 in0.0 mm
12:43 PM 61.3°F16.3°C 54.5°F12.5°C 78% 3.8 mph S6.1 kmh S 7.6 mph12.2 kmh 30.20 in1022.7 mb 0.00 in0.0 mm 0.00 in0.0 mm 0.00 in0.0 mm
12:58 PM 62.1°F16.7°C 54.7°F12.6°C 77% 6.0 mph SSW9.7 kmh SSW 10.1 mph16.3 kmh 30.20 in1022.7 mb 0.00 in0.0 mm 0.00 in0.0 mm 0.00 in0.0 mm
01:13 PM 62.6°F17.0°C 54.9°F12.7°C 76% 2.5 mph SSE4.0 kmh SSE 12.5 mph20.1 kmh 30.19 in1022.4 mb 0.00 in0.0 mm 0.00 in0.0 mm 0.00 in0.0 mm
01:28 PM 62.8°F17.1°C 55.0°F12.8°C 76% Calm Calm 10.1 mph16.3 kmh 30.19 in1022.4 mb 0.00 in0.0 mm 0.00 in0.0 mm 0.00 in0.0 mm
01:43 PM 62.6°F17.0°C 54.1°F12.3°C 74% 1.3 mph S2.1 kmh S 10.1 mph16.3 kmh 30.18 in1022.0 mb 0.00 in0.0 mm 0.00 in0.0 mm 0.00 in0.0 mm
01:59 PM 63.1°F17.3°C 55.4°F13.0°C 76% 5.4 mph S8.7 kmh S 12.5 mph20.1 kmh 30.18 in1022.0 mb 0.00 in0.0 mm 0.00 in0.0 mm 0.00 in0.0 mm
02:14 PM 63.1°F17.3°C 56.8°F13.8°C 80% 1.8 mph E2.9 kmh E 15.0 mph24.1 kmh 30.18 in1022.0 mb 0.00 in0.0 mm 0.00 in0.0 mm 0.00 in0.0 mm
02:29 PM 62.6°F17.0°C 56.3°F13.5°C 80% 4.5 mph SW7.2 kmh SW 12.5 mph20.1 kmh 30.18 in1022.0 mb 0.00 in0.0 mm 0.00 in0.0 mm 0.00 in0.0 mm
02:44 PM 62.1°F16.7°C 56.5°F13.6°C 82% 1.8 mph SSE2.9 kmh SSE 10.1 mph16.3 kmh 30.17 in1021.7 mb 0.00 in0.0 mm 0.00 in0.0 mm 0.00 in0.0 mm
02:59 PM 61.9°F16.6°C 54.9°F12.7°C 78% 3.8 mph S6.1 kmh S 7.6 mph12.2 kmh 30.17 in1021.7 mb 0.00 in0.0 mm 0.00 in0.0 mm 0.00 in0.0 mm
03:14 PM 62.1°F16.7°C 55.4°F13.0°C 79% 3.8 mph S6.1 kmh S 10.1 mph16.3 kmh 30.17 in1021.7 mb 0.00 in0.0 mm 0.00 in0.0 mm 0.00 in0.0 mm
03:29 PM 62.1°F16.7°C 54.7°F12.6°C 77% 6.0 mph SSE9.7 kmh SSE 7.6 mph12.2 kmh 30.16 in1021.3 mb 0.00 in0.0 mm 0.00 in0.0 mm 0.00 in0.0 mm
03:44 PM 62.2°F16.8°C 55.2°F12.9°C 78% 5.4 mph S8.7 kmh S 12.5 mph20.1 kmh 30.17 in1021.7 mb 0.00 in0.0 mm 0.00 in0.0 mm 0.00 in0.0 mm
03:59 PM 62.1°F16.7°C 55.8°F13.2°C 80% 0.2 mph SSW0.3 kmh SSW 10.1 mph16.3 kmh 30.16 in1021.3 mb 0.00 in0.0 mm 0.00 in0.0 mm 0.00 in0.0 mm
04:14 PM 61.9°F16.6°C 55.2°F12.9°C 79% 0.7 mph SSW1.1 kmh SSW 7.6 mph12.2 kmh 30.17 in1021.7 mb 0.00 in0.0 mm 0.00 in0.0 mm 0.00 in0.0 mm
04:29 PM 61.5°F16.4°C 54.9°F12.7°C 79% 4.0 mph ESE6.4 kmh ESE 7.6 mph12.2 kmh 30.17 in1021.7 mb 0.00 in0.0 mm 0.00 in0.0 mm 0.00 in0.0 mm
04:44 PM 61.3°F16.3°C 54.1°F12.3°C 77% 4.5 mph SE7.2 kmh SE 7.6 mph12.2 kmh 30.18 in1022.0 mb 0.00 in0.0 mm 0.00 in0.0 mm 0.00 in0.0 mm
04:59 PM 61.3°F16.3°C 54.5°F12.5°C 78% Calm Calm 7.6 mph12.2 kmh 30.17 in1021.7 mb 0.00 in0.0 mm 0.00 in0.0 mm 0.00 in0.0 mm
05:14 PM 61.0°F16.1°C 54.1°F12.3°C 78% 2.5 mph SSE4.0 kmh SSE 4.9 mph7.9 kmh 30.17 in1021.7 mb 0.00 in0.0 mm 0.00 in0.0 mm 0.00 in0.0 mm
05:29 PM 60.8°F16.0°C 54.0°F12.2°C 78% Calm Calm 2.5 mph4.0 kmh 30.18 in1022.0 mb 0.00 in0.0 mm 0.00 in0.0 mm 0.00 in0.0 mm
05:44 PM 60.3°F15.7°C 49.3°F9.6°C 67% 2.2 mph NW3.5 kmh NW 7.6 mph12.2 kmh 30.18 in1022.0 mb 0.00 in0.0 mm 0.00 in0.0 mm 0.00 in0.0 mm
05:59 PM 59.2°F15.1°C 49.8°F9.9°C 71% 6.3 mph NNW10.1 kmh NNW 7.6 mph12.2 kmh 30.18 in1022.0 mb 0.00 in0.0 mm 0.00 in0.0 mm 0.00 in0.0 mm
06:14 PM 58.1°F14.5°C 49.5°F9.7°C 73% 2.2 mph NW3.5 kmh NW 10.1 mph16.3 kmh 30.18 in1022.0 mb 0.00 in0.0 mm 0.00 in0.0 mm 0.00 in0.0 mm
06:30 PM 57.6°F14.2°C 49.6°F9.8°C 75% 2.9 mph NNW4.7 kmh NNW 10.1 mph16.3 kmh 30.19 in1022.4 mb 0.00 in0.0 mm 0.00 in0.0 mm 0.00 in0.0 mm
06:45 PM 57.2°F14.0°C 46.8°F8.2°C 68% 4.0 mph S6.4 kmh S 12.5 mph20.1 kmh 30.19 in1022.4 mb 0.00 in0.0 mm 0.00 in0.0 mm 0.00 in0.0 mm
07:00 PM 57.4°F14.1°C 48.0°F8.9°C 71% 6.5 mph NW10.5 kmh NW 10.1 mph16.3 kmh 30.19 in1022.4 mb 0.00 in0.0 mm 0.00 in0.0 mm 0.00 in0.0 mm
07:15 PM 57.6°F14.2°C 48.6°F9.2°C 72% 3.1 mph NNW5.0 kmh NNW 10.1 mph16.3 kmh 30.20 in1022.7 mb 0.00 in0.0 mm 0.00 in0.0 mm 0.00 in0.0 mm
07:30 PM 56.8°F13.8°C 47.5°F8.6°C 71% 4.9 mph NW7.9 kmh NW 12.5 mph20.1 kmh 30.20 in1022.7 mb 0.00 in0.0 mm 0.00 in0.0 mm 0.00 in0.0 mm
07:45 PM 56.7°F13.7°C 48.0°F8.9°C 73% 1.6 mph N2.6 kmh N 10.1 mph16.3 kmh 30.22 in1023.4 mb 0.00 in0.0 mm 0.00 in0.0 mm 0.00 in0.0 mm
08:00 PM 56.7°F13.7°C 47.7°F8.7°C 72% 3.4 mph NW5.5 kmh NW 12.5 mph20.1 kmh 30.22 in1023.4 mb 0.00 in0.0 mm 0.00 in0.0 mm 0.00 in0.0 mm
08:15 PM 56.7°F13.7°C 48.0°F8.9°C 73% 1.6 mph WNW2.6 kmh WNW 15.0 mph24.1 kmh 30.22 in1023.4 mb 0.00 in0.0 mm 0.00 in0.0 mm 0.00 in0.0 mm
08:30 PM 56.7°F13.7°C 47.7°F8.7°C 72% 3.8 mph N6.1 kmh N 12.5 mph20.1 kmh 30.22 in1023.4 mb 0.00 in0.0 mm 0.00 in0.0 mm 0.00 in0.0 mm
08:45 PM 56.8°F13.8°C 47.8°F8.8°C 72% 4.5 mph NW7.2 kmh NW 7.6 mph12.2 kmh 30.22 in1023.4 mb 0.00 in0.0 mm 0.00 in0.0 mm 0.00 in0.0 mm
09:00 PM 57.2°F14.0°C 47.8°F8.8°C 71% 2.9 mph WNW4.7 kmh WNW 10.1 mph16.3 kmh 30.22 in1023.4 mb 0.00 in0.0 mm 0.00 in0.0 mm 0.00 in0.0 mm
09:15 PM 57.2°F14.0°C 47.5°F8.6°C 70% 0.9 mph WNW1.4 kmh WNW 10.1 mph16.3 kmh 30.23 in1023.7 mb 0.00 in0.0 mm 0.00 in0.0 mm 0.00 in0.0 mm
09:30 PM 57.4°F14.1°C 48.7°F9.3°C 73% 1.3 mph NW2.1 kmh NW 10.1 mph16.3 kmh 30.23 in1023.7 mb 0.00 in0.0 mm 0.00 in0.0 mm 0.00 in0.0 mm
09:45 PM 57.6°F14.2°C 48.6°F9.2°C 72% 2.9 mph NW4.7 kmh NW 7.6 mph12.2 kmh 30.23 in1023.7 mb 0.00 in0.0 mm 0.00 in0.0 mm 0.00 in0.0 mm
10:00 PM 57.6°F14.2°C 49.6°F9.8°C 75% 4.7 mph NNW7.6 kmh NNW 7.6 mph12.2 kmh 30.24 in1024.0 mb 0.00 in0.0 mm 0.00 in0.0 mm 0.00 in0.0 mm
10:15 PM 57.2°F14.0°C 49.3°F9.6°C 75% Calm Calm 7.6 mph12.2 kmh 30.24 in1024.0 mb 0.00 in0.0 mm 0.00 in0.0 mm 0.00 in0.0 mm
10:30 PM 56.8°F13.8°C 49.3°F9.6°C 76% 1.8 mph N2.9 kmh N 4.9 mph7.9 kmh 30.25 in1024.4 mb 0.00 in0.0 mm 0.00 in0.0 mm 0.00 in0.0 mm
10:45 PM 57.0°F13.9°C 49.5°F9.7°C 76% 5.4 mph N8.7 kmh N 7.6 mph12.2 kmh 30.24 in1024.0 mb 0.00 in0.0 mm 0.00 in0.0 mm 0.00 in0.0 mm
11:00 PM 57.0°F13.9°C 48.7°F9.3°C 74% 4.5 mph NNW7.2 kmh NNW 7.6 mph12.2 kmh 30.25 in1024.4 mb 0.00 in0.0 mm 0.00 in0.0 mm 0.00 in0.0 mm
11:16 PM 56.8°F13.8°C 49.3°F9.6°C 76% 2.2 mph NNW3.5 kmh NNW 10.1 mph16.3 kmh 30.25 in1024.4 mb 0.00 in0.0 mm 0.00 in0.0 mm 0.00 in0.0 mm
11:31 PM 56.8°F13.8°C 49.6°F9.8°C 77% 5.6 mph NW9.0 kmh NW 10.1 mph16.3 kmh 30.25 in1024.4 mb 0.00 in0.0 mm 0.00 in0.0 mm 0.00 in0.0 mm
11:46 PM 56.7°F13.7°C 48.7°F9.3°C 75% 3.1 mph NW5.0 kmh NW 10.1 mph16.3 kmh 30.24 in1024.0 mb 0.00 in0.0 mm 0.00 in0.0 mm 0.00 in0.0 mm